sensor_id;sensor_type;location;lat;lon;timestamp;temperature;humidity
15916;DHT22;8057;47.830;-3.870;2023-05-17T00:03:50;10.00;99.90
15916;DHT22;8057;47.830;-3.870;2023-05-17T00:08:03;9.90;99.90
15916;DHT22;8057;47.830;-3.870;2023-05-17T00:12:12;9.90;99.90
15916;DHT22;8057;47.830;-3.870;2023-05-17T00:16:22;9.90;99.90
15916;DHT22;8057;47.830;-3.870;2023-05-17T00:20:31;9.70;99.90
15916;DHT22;8057;47.830;-3.870;2023-05-17T00:24:41;9.60;99.90
15916;DHT22;8057;47.830;-3.870;2023-05-17T00:28:50;9.60;99.90
15916;DHT22;8057;47.830;-3.870;2023-05-17T00:33:00;9.60;99.90
15916;DHT22;8057;47.830;-3.870;2023-05-17T00:37:09;9.50;99.90
15916;DHT22;8057;47.830;-3.870;2023-05-17T00:41:18;9.50;99.90
15916;DHT22;8057;47.830;-3.870;2023-05-17T00:45:28;9.50;99.90
15916;DHT22;8057;47.830;-3.870;2023-05-17T00:49:38;9.50;99.90
15916;DHT22;8057;47.830;-3.870;2023-05-17T00:53:47;9.40;99.90
15916;DHT22;8057;47.830;-3.870;2023-05-17T00:57:57;9.30;99.90
15916;DHT22;8057;47.830;-3.870;2023-05-17T01:02:06;9.30;99.90
15916;DHT22;8057;47.830;-3.870;2023-05-17T01:06:17;9.10;99.90
15916;DHT22;8057;47.830;-3.870;2023-05-17T01:10:33;9.20;99.90
15916;DHT22;8057;47.830;-3.870;2023-05-17T01:14:51;9.20;99.90
15916;DHT22;8057;47.830;-3.870;2023-05-17T01:19:08;9.20;99.90
15916;DHT22;8057;47.830;-3.870;2023-05-17T01:23:34;9.20;99.90
15916;DHT22;8057;47.830;-3.870;2023-05-17T01:27:48;9.20;99.90
15916;DHT22;8057;47.830;-3.870;2023-05-17T01:31:58;9.20;99.90
15916;DHT22;8057;47.830;-3.870;2023-05-17T01:36:10;9.20;99.90
15916;DHT22;8057;47.830;-3.870;2023-05-17T01:40:19;9.20;99.90
15916;DHT22;8057;47.830;-3.870;2023-05-17T01:44:34;9.10;99.90
15916;DHT22;8057;47.830;-3.870;2023-05-17T01:48:51;9.10;99.90
15916;DHT22;8057;47.830;-3.870;2023-05-17T01:53:06;9.10;99.90
15916;DHT22;8057;47.830;-3.870;2023-05-17T01:57:19;9.10;99.90
15916;DHT22;8057;47.830;-3.870;2023-05-17T02:01:34;8.90;99.90
15916;DHT22;8057;47.830;-3.870;2023-05-17T02:05:43;8.80;99.90
15916;DHT22;8057;47.830;-3.870;2023-05-17T02:09:52;8.80;99.90
15916;DHT22;8057;47.830;-3.870;2023-05-17T02:14:02;8.80;99.90
15916;DHT22;8057;47.830;-3.870;2023-05-17T02:18:12;8.70;99.90
15916;DHT22;8057;47.830;-3.870;2023-05-17T02:22:21;8.80;99.90
15916;DHT22;8057;47.830;-3.870;2023-05-17T02:26:30;8.80;99.90
15916;DHT22;8057;47.830;-3.870;2023-05-17T02:30:40;8.70;99.90
15916;DHT22;8057;47.830;-3.870;2023-05-17T02:34:50;8.70;99.90
15916;DHT22;8057;47.830;-3.870;2023-05-17T02:39:00;8.50;99.90
15916;DHT22;8057;47.830;-3.870;2023-05-17T02:43:09;8.50;99.90
15916;DHT22;8057;47.830;-3.870;2023-05-17T02:47:18;8.30;99.90
15916;DHT22;8057;47.830;-3.870;2023-05-17T02:51:29;8.30;99.90
15916;DHT22;8057;47.830;-3.870;2023-05-17T02:55:38;8.40;99.90
15916;DHT22;8057;47.830;-3.870;2023-05-17T02:59:47;8.50;99.90
15916;DHT22;8057;47.830;-3.870;2023-05-17T03:03:56;8.50;99.90
15916;DHT22;8057;47.830;-3.870;2023-05-17T03:08:07;8.50;99.90
15916;DHT22;8057;47.830;-3.870;2023-05-17T03:12:16;8.40;99.90
15916;DHT22;8057;47.830;-3.870;2023-05-17T03:16:27;8.30;99.90
15916;DHT22;8057;47.830;-3.870;2023-05-17T03:20:36;8.30;99.90
15916;DHT22;8057;47.830;-3.870;2023-05-17T03:24:47;8.30;99.90
15916;DHT22;8057;47.830;-3.870;2023-05-17T03:28:56;8.20;99.90
15916;DHT22;8057;47.830;-3.870;2023-05-17T03:33:05;8.10;99.90
15916;DHT22;8057;47.830;-3.870;2023-05-17T03:37:14;8.10;99.90
15916;DHT22;8057;47.830;-3.870;2023-05-17T03:41:25;8.20;99.90
15916;DHT22;8057;47.830;-3.870;2023-05-17T03:45:34;8.30;99.90
15916;DHT22;8057;47.830;-3.870;2023-05-17T03:49:43;8.30;99.90
15916;DHT22;8057;47.830;-3.870;2023-05-17T03:53:59;8.30;99.90
15916;DHT22;8057;47.830;-3.870;2023-05-17T03:58:09;8.20;99.90
15916;DHT22;8057;47.830;-3.870;2023-05-17T04:02:19;8.20;99.90
15916;DHT22;8057;47.830;-3.870;2023-05-17T04:06:28;8.20;99.90
15916;DHT22;8057;47.830;-3.870;2023-05-17T04:10:37;8.20;99.90
15916;DHT22;8057;47.830;-3.870;2023-05-17T04:14:49;8.20;99.90
15916;DHT22;8057;47.830;-3.870;2023-05-17T04:18:59;8.10;99.90
15916;DHT22;8057;47.830;-3.870;2023-05-17T04:23:08;8.10;99.90
15916;DHT22;8057;47.830;-3.870;2023-05-17T04:27:17;8.00;99.90
15916;DHT22;8057;47.830;-3.870;2023-05-17T04:31:30;8.00;99.90
15916;DHT22;8057;47.830;-3.870;2023-05-17T04:35:41;8.00;99.90
15916;DHT22;8057;47.830;-3.870;2023-05-17T04:39:50;8.00;99.90
15916;DHT22;8057;47.830;-3.870;2023-05-17T04:44:00;8.00;99.90
15916;DHT22;8057;47.830;-3.870;2023-05-17T04:48:11;8.00;99.90
15916;DHT22;8057;47.830;-3.870;2023-05-17T04:52:20;7.90;99.90
15916;DHT22;8057;47.830;-3.870;2023-05-17T04:56:29;7.90;99.90
15916;DHT22;8057;47.830;-3.870;2023-05-17T05:00:38;8.00;99.90
15916;DHT22;8057;47.830;-3.870;2023-05-17T05:04:49;8.00;99.90
15916;DHT22;8057;47.830;-3.870;2023-05-17T05:08:59;8.10;99.90
15916;DHT22;8057;47.830;-3.870;2023-05-17T05:13:08;8.20;99.90
15916;DHT22;8057;47.830;-3.870;2023-05-17T05:17:17;8.20;99.90
15916;DHT22;8057;47.830;-3.870;2023-05-17T05:21:29;8.30;99.90
15916;DHT22;8057;47.830;-3.870;2023-05-17T05:25:38;8.40;99.90
15916;DHT22;8057;47.830;-3.870;2023-05-17T05:29:47;8.50;99.90
15916;DHT22;8057;47.830;-3.870;2023-05-17T05:33:56;8.60;99.90
15916;DHT22;8057;47.830;-3.870;2023-05-17T05:38:07;8.70;99.90
15916;DHT22;8057;47.830;-3.870;2023-05-17T05:42:16;8.80;99.90
15916;DHT22;8057;47.830;-3.870;2023-05-17T05:46:25;8.90;99.90
15916;DHT22;8057;47.830;-3.870;2023-05-17T05:50:34;9.00;99.90
15916;DHT22;8057;47.830;-3.870;2023-05-17T05:54:45;9.10;99.90
15916;DHT22;8057;47.830;-3.870;2023-05-17T05:58:55;9.30;99.90
15916;DHT22;8057;47.830;-3.870;2023-05-17T06:03:04;9.40;99.90
15916;DHT22;8057;47.830;-3.870;2023-05-17T06:07:14;9.50;99.90
15916;DHT22;8057;47.830;-3.870;2023-05-17T06:11:24;9.70;99.90
15916;DHT22;8057;47.830;-3.870;2023-05-17T06:15:34;9.80;99.90
15916;DHT22;8057;47.830;-3.870;2023-05-17T06:19:43;10.00;99.90
15916;DHT22;8057;47.830;-3.870;2023-05-17T06:23:52;10.10;99.90
15916;DHT22;8057;47.830;-3.870;2023-05-17T06:28:03;10.30;99.90
15916;DHT22;8057;47.830;-3.870;2023-05-17T06:32:15;10.50;99.90
15916;DHT22;8057;47.830;-3.870;2023-05-17T06:36:24;10.60;99.90
15916;DHT22;8057;47.830;-3.870;2023-05-17T06:40:33;10.80;99.90
15916;DHT22;8057;47.830;-3.870;2023-05-17T06:44:44;11.10;99.90
15916;DHT22;8057;47.830;-3.870;2023-05-17T06:48:53;11.30;99.90
15916;DHT22;8057;47.830;-3.870;2023-05-17T06:53:03;11.40;99.90
15916;DHT22;8057;47.830;-3.870;2023-05-17T06:57:12;11.60;99.90
15916;DHT22;8057;47.830;-3.870;2023-05-17T07:01:23;11.80;99.90
15916;DHT22;8057;47.830;-3.870;2023-05-17T07:05:32;11.90;99.90
15916;DHT22;8057;47.830;-3.870;2023-05-17T07:09:41;12.10;99.90
15916;DHT22;8057;47.830;-3.870;2023-05-17T07:13:50;12.40;99.90
15916;DHT22;8057;47.830;-3.870;2023-05-17T07:18:02;12.50;99.90
15916;DHT22;8057;47.830;-3.870;2023-05-17T07:22:11;12.70;99.90
15916;DHT22;8057;47.830;-3.870;2023-05-17T07:26:21;12.90;99.90
15916;DHT22;8057;47.830;-3.870;2023-05-17T07:30:30;13.10;99.90
15916;DHT22;8057;47.830;-3.870;2023-05-17T07:34:41;13.30;99.90
15916;DHT22;8057;47.830;-3.870;2023-05-17T07:38:50;13.40;99.90
15916;DHT22;8057;47.830;-3.870;2023-05-17T07:42:59;13.50;99.90
15916;DHT22;8057;47.830;-3.870;2023-05-17T07:47:08;13.70;99.90
15916;DHT22;8057;47.830;-3.870;2023-05-17T07:51:19;13.80;99.90
15916;DHT22;8057;47.830;-3.870;2023-05-17T07:55:28;14.00;99.90
15916;DHT22;8057;47.830;-3.870;2023-05-17T07:59:37;14.10;99.90
15916;DHT22;8057;47.830;-3.870;2023-05-17T08:03:48;14.30;99.90
15916;DHT22;8057;47.830;-3.870;2023-05-17T08:07:59;14.50;99.90
15916;DHT22;8057;47.830;-3.870;2023-05-17T08:12:08;14.60;99.90
15916;DHT22;8057;47.830;-3.870;2023-05-17T08:16:17;14.80;99.90
15916;DHT22;8057;47.830;-3.870;2023-05-17T08:20:27;15.00;99.90
15916;DHT22;8057;47.830;-3.870;2023-05-17T08:24:40;15.30;99.90
15916;DHT22;8057;47.830;-3.870;2023-05-17T08:28:51;15.60;99.90
15916;DHT22;8057;47.830;-3.870;2023-05-17T08:33:00;15.80;99.90
15916;DHT22;8057;47.830;-3.870;2023-05-17T08:37:10;15.90;99.90
15916;DHT22;8057;47.830;-3.870;2023-05-17T08:41:21;16.20;99.90
15916;DHT22;8057;47.830;-3.870;2023-05-17T08:45:30;16.40;99.90
15916;DHT22;8057;47.830;-3.870;2023-05-17T08:49:39;16.60;99.90
15916;DHT22;8057;47.830;-3.870;2023-05-17T08:53:51;16.80;99.90
15916;DHT22;8057;47.830;-3.870;2023-05-17T08:58:03;17.30;99.90
15916;DHT22;8057;47.830;-3.870;2023-05-17T09:02:13;17.40;99.90
15916;DHT22;8057;47.830;-3.870;2023-05-17T09:06:23;17.70;99.90
15916;DHT22;8057;47.830;-3.870;2023-05-17T09:10:32;18.10;99.90
15916;DHT22;8057;47.830;-3.870;2023-05-17T09:14:43;17.80;99.90
15916;DHT22;8057;47.830;-3.870;2023-05-17T09:18:53;18.20;99.90
15916;DHT22;8057;47.830;-3.870;2023-05-17T09:23:03;18.00;99.90
15916;DHT22;8057;47.830;-3.870;2023-05-17T09:27:14;17.70;99.90
15916;DHT22;8057;47.830;-3.870;2023-05-17T09:31:27;17.60;99.90
15916;DHT22;8057;47.830;-3.870;2023-05-17T09:36:14;17.80;99.90
15916;DHT22;8057;47.830;-3.870;2023-05-17T10:08:45;18.80;99.90
15916;DHT22;8057;47.830;-3.870;2023-05-17T10:13:50;18.50;99.90
15916;DHT22;8057;47.830;-3.870;2023-05-17T10:18:20;18.00;99.90
15916;DHT22;8057;47.830;-3.870;2023-05-17T10:22:39;18.60;99.90
15916;DHT22;8057;47.830;-3.870;2023-05-17T10:26:57;18.80;99.90
15916;DHT22;8057;47.830;-3.870;2023-05-17T10:31:07;18.70;99.90
15916;DHT22;8057;47.830;-3.870;2023-05-17T10:35:17;18.50;99.90
15916;DHT22;8057;47.830;-3.870;2023-05-17T10:39:31;18.40;99.90
15916;DHT22;8057;47.830;-3.870;2023-05-17T10:43:47;18.40;99.90
15916;DHT22;8057;47.830;-3.870;2023-05-17T10:48:01;18.30;99.90
15916;DHT22;8057;47.830;-3.870;2023-05-17T10:57:04;19.70;99.90
15916;DHT22;8057;47.830;-3.870;2023-05-17T11:35:09;19.20;99.90
15916;DHT22;8057;47.830;-3.870;2023-05-17T11:40:04;19.10;99.90
15916;DHT22;8057;47.830;-3.870;2023-05-17T11:44:30;18.80;99.90
15916;DHT22;8057;47.830;-3.870;2023-05-17T11:49:08;19.10;99.90
15916;DHT22;8057;47.830;-3.870;2023-05-17T11:53:35;19.80;99.90
15916;DHT22;8057;47.830;-3.870;2023-05-17T11:57:48;20.40;99.90
15916;DHT22;8057;47.830;-3.870;2023-05-17T12:02:00;20.90;99.90
15916;DHT22;8057;47.830;-3.870;2023-05-17T12:06:19;20.90;99.90
15916;DHT22;8057;47.830;-3.870;2023-05-17T12:10:31;21.00;99.90
15916;DHT22;8057;47.830;-3.870;2023-05-17T12:14:42;20.40;99.90
15916;DHT22;8057;47.830;-3.870;2023-05-17T12:18:52;19.80;99.90
15916;DHT22;8057;47.830;-3.870;2023-05-17T12:23:04;19.00;99.90
15916;DHT22;8057;47.830;-3.870;2023-05-17T12:27:24;18.80;99.90
15916;DHT22;8057;47.830;-3.870;2023-05-17T12:31:37;19.10;99.90
15916;DHT22;8057;47.830;-3.870;2023-05-17T12:35:47;19.60;99.90
15916;DHT22;8057;47.830;-3.870;2023-05-17T12:39:59;19.50;99.90
15916;DHT22;8057;47.830;-3.870;2023-05-17T12:44:24;19.30;99.90
15916;DHT22;8057;47.830;-3.870;2023-05-17T12:48:52;18.90;99.90
15916;DHT22;8057;47.830;-3.870;2023-05-17T12:53:36;18.80;99.90
15916;DHT22;8057;47.830;-3.870;2023-05-17T15:07:43;19.00;99.90
15916;DHT22;8057;47.830;-3.870;2023-05-17T15:12:01;19.30;99.90
15916;DHT22;8057;47.830;-3.870;2023-05-17T15:16:39;19.30;99.90
15916;DHT22;8057;47.830;-3.870;2023-05-17T15:20:49;18.90;99.90
15916;DHT22;8057;47.830;-3.870;2023-05-17T15:25:00;18.70;99.90
15916;DHT22;8057;47.830;-3.870;2023-05-17T15:29:09;18.70;99.90
15916;DHT22;8057;47.830;-3.870;2023-05-17T15:33:20;18.90;99.90
15916;DHT22;8057;47.830;-3.870;2023-05-17T15:47:18;19.60;99.90
15916;DHT22;8057;47.830;-3.870;2023-05-17T15:51:55;18.80;99.90
15916;DHT22;8057;47.830;-3.870;2023-05-17T15:56:34;18.30;99.90
15916;DHT22;8057;47.830;-3.870;2023-05-17T16:00:44;18.60;99.90
15916;DHT22;8057;47.830;-3.870;2023-05-17T16:04:55;19.20;99.90
15916;DHT22;8057;47.830;-3.870;2023-05-17T16:09:09;19.10;99.90
15916;DHT22;8057;47.830;-3.870;2023-05-17T16:13:18;18.90;99.90
15916;DHT22;8057;47.830;-3.870;2023-05-17T16:17:27;19.10;99.90
15916;DHT22;8057;47.830;-3.870;2023-05-17T16:21:38;19.40;99.90
15916;DHT22;8057;47.830;-3.870;2023-05-17T16:25:47;19.60;99.90
15916;DHT22;8057;47.830;-3.870;2023-05-17T16:29:56;19.60;99.90
15916;DHT22;8057;47.830;-3.870;2023-05-17T16:34:05;18.70;99.90
15916;DHT22;8057;47.830;-3.870;2023-05-17T16:38:16;18.80;99.90
15916;DHT22;8057;47.830;-3.870;2023-05-17T16:42:25;19.10;99.90
15916;DHT22;8057;47.830;-3.870;2023-05-17T16:46:35;19.30;99.90
15916;DHT22;8057;47.830;-3.870;2023-05-17T16:50:45;19.60;99.90
15916;DHT22;8057;47.830;-3.870;2023-05-17T16:54:57;19.30;99.90
15916;DHT22;8057;47.830;-3.870;2023-05-17T16:59:09;19.10;99.90
15916;DHT22;8057;47.830;-3.870;2023-05-17T17:03:19;18.80;99.90
15916;DHT22;8057;47.830;-3.870;2023-05-17T17:07:28;18.20;99.90
15916;DHT22;8057;47.830;-3.870;2023-05-17T17:11:40;17.90;99.90
15916;DHT22;8057;47.830;-3.870;2023-05-17T17:15:49;17.90;99.90
15916;DHT22;8057;47.830;-3.870;2023-05-17T17:19:58;17.80;99.90
15916;DHT22;8057;47.830;-3.870;2023-05-17T17:24:08;18.10;99.90
15916;DHT22;8057;47.830;-3.870;2023-05-17T17:28:18;18.40;99.90
15916;DHT22;8057;47.830;-3.870;2023-05-17T17:32:27;18.70;99.90
15916;DHT22;8057;47.830;-3.870;2023-05-17T17:36:37;18.80;99.90
15916;DHT22;8057;47.830;-3.870;2023-05-17T17:40:46;18.60;99.90
15916;DHT22;8057;47.830;-3.870;2023-05-17T17:44:57;18.40;99.90
15916;DHT22;8057;47.830;-3.870;2023-05-17T17:49:06;18.40;99.90
15916;DHT22;8057;47.830;-3.870;2023-05-17T17:53:15;18.50;99.90
15916;DHT22;8057;47.830;-3.870;2023-05-17T17:57:25;18.40;99.90
15916;DHT22;8057;47.830;-3.870;2023-05-17T18:01:36;18.20;99.90
15916;DHT22;8057;47.830;-3.870;2023-05-17T18:05:45;18.10;99.90
15916;DHT22;8057;47.830;-3.870;2023-05-17T18:09:55;18.10;99.90
15916;DHT22;8057;47.830;-3.870;2023-05-17T18:14:04;17.90;99.90
15916;DHT22;8057;47.830;-3.870;2023-05-17T18:18:15;17.70;99.90
15916;DHT22;8057;47.830;-3.870;2023-05-17T18:22:24;17.60;99.90
15916;DHT22;8057;47.830;-3.870;2023-05-17T18:26:33;17.50;99.90
15916;DHT22;8057;47.830;-3.870;2023-05-17T18:30:43;17.30;99.90
15916;DHT22;8057;47.830;-3.870;2023-05-17T18:34:53;17.40;99.90
15916;DHT22;8057;47.830;-3.870;2023-05-17T18:39:03;17.30;99.90
15916;DHT22;8057;47.830;-3.870;2023-05-17T18:43:12;17.10;99.90
15916;DHT22;8057;47.830;-3.870;2023-05-17T18:47:21;17.00;99.90
15916;DHT22;8057;47.830;-3.870;2023-05-17T18:51:33;16.90;99.90
15916;DHT22;8057;47.830;-3.870;2023-05-17T18:55:42;16.70;99.90
15916;DHT22;8057;47.830;-3.870;2023-05-17T18:59:56;16.50;99.90
15916;DHT22;8057;47.830;-3.870;2023-05-17T19:04:48;16.40;99.90
15916;DHT22;8057;47.830;-3.870;2023-05-17T19:35:44;15.60;99.90
15916;DHT22;8057;47.830;-3.870;2023-05-17T19:40:03;15.30;99.90
15916;DHT22;8057;47.830;-3.870;2023-05-17T19:44:14;15.20;99.90
15916;DHT22;8057;47.830;-3.870;2023-05-17T19:48:32;15.00;99.90
15916;DHT22;8057;47.830;-3.870;2023-05-17T19:52:43;14.90;99.90
15916;DHT22;8057;47.830;-3.870;2023-05-17T19:56:53;14.70;99.90
15916;DHT22;8057;47.830;-3.870;2023-05-17T20:01:02;14.60;99.90
15916;DHT22;8057;47.830;-3.870;2023-05-17T20:05:12;14.50;99.90
15916;DHT22;8057;47.830;-3.870;2023-05-17T20:09:33;14.40;99.90
15916;DHT22;8057;47.830;-3.870;2023-05-17T20:13:42;14.30;99.90
15916;DHT22;8057;47.830;-3.870;2023-05-17T20:17:52;14.20;99.90
15916;DHT22;8057;47.830;-3.870;2023-05-17T20:22:01;14.00;99.90
15916;DHT22;8057;47.830;-3.870;2023-05-17T20:26:13;13.90;99.90
15916;DHT22;8057;47.830;-3.870;2023-05-17T20:30:32;13.70;99.90
15916;DHT22;8057;47.830;-3.870;2023-05-17T20:34:41;13.50;99.90
15916;DHT22;8057;47.830;-3.870;2023-05-17T20:38:52;13.30;99.90
15916;DHT22;8057;47.830;-3.870;2023-05-17T20:43:06;13.30;99.90
15916;DHT22;8057;47.830;-3.870;2023-05-17T20:47:16;13.20;99.90
15916;DHT22;8057;47.830;-3.870;2023-05-17T20:51:25;13.00;99.90
15916;DHT22;8057;47.830;-3.870;2023-05-17T20:55:34;13.00;99.90
15916;DHT22;8057;47.830;-3.870;2023-05-17T20:59:45;12.90;99.90
15916;DHT22;8057;47.830;-3.870;2023-05-17T21:03:55;12.90;99.90
15916;DHT22;8057;47.830;-3.870;2023-05-17T21:08:05;12.80;99.90
15916;DHT22;8057;47.830;-3.870;2023-05-17T21:12:15;12.60;99.90
15916;DHT22;8057;47.830;-3.870;2023-05-17T21:16:26;12.60;99.90
15916;DHT22;8057;47.830;-3.870;2023-05-17T21:20:36;12.60;99.90
15916;DHT22;8057;47.830;-3.870;2023-05-17T21:24:45;12.40;99.90
15916;DHT22;8057;47.830;-3.870;2023-05-17T21:28:57;12.30;99.90
15916;DHT22;8057;47.830;-3.870;2023-05-17T21:33:07;12.30;99.90
15916;DHT22;8057;47.830;-3.870;2023-05-17T21:37:17;12.20;99.90
15916;DHT22;8057;47.830;-3.870;2023-05-17T21:41:27;12.10;99.90
15916;DHT22;8057;47.830;-3.870;2023-05-17T21:45:36;12.00;99.90
15916;DHT22;8057;47.830;-3.870;2023-05-17T21:49:47;12.00;99.90
15916;DHT22;8057;47.830;-3.870;2023-05-17T21:53:56;11.90;99.90
15916;DHT22;8057;47.830;-3.870;2023-05-17T21:58:05;11.90;99.90
15916;DHT22;8057;47.830;-3.870;2023-05-17T22:02:14;11.80;99.90
15916;DHT22;8057;47.830;-3.870;2023-05-17T22:06:25;11.80;99.90
15916;DHT22;8057;47.830;-3.870;2023-05-17T22:10:35;11.70;99.90
15916;DHT22;8057;47.830;-3.870;2023-05-17T22:14:46;11.60;99.90
15916;DHT22;8057;47.830;-3.870;2023-05-17T22:18:56;11.60;99.90
15916;DHT22;8057;47.830;-3.870;2023-05-17T22:23:08;11.60;99.90
15916;DHT22;8057;47.830;-3.870;2023-05-17T22:27:17;11.60;99.90
15916;DHT22;8057;47.830;-3.870;2023-05-17T22:31:27;11.50;99.90
15916;DHT22;8057;47.830;-3.870;2023-05-17T22:35:36;11.50;99.90
15916;DHT22;8057;47.830;-3.870;2023-05-17T22:39:49;11.40;99.90
15916;DHT22;8057;47.830;-3.870;2023-05-17T22:43:58;11.40;99.90
15916;DHT22;8057;47.830;-3.870;2023-05-17T22:48:07;11.50;99.90
15916;DHT22;8057;47.830;-3.870;2023-05-17T22:52:17;11.30;99.90
15916;DHT22;8057;47.830;-3.870;2023-05-17T22:56:28;11.20;99.90
15916;DHT22;8057;47.830;-3.870;2023-05-17T23:00:37;11.20;99.90
15916;DHT22;8057;47.830;-3.870;2023-05-17T23:04:46;11.20;99.90
15916;DHT22;8057;47.830;-3.870;2023-05-17T23:08:56;11.10;99.90
15916;DHT22;8057;47.830;-3.870;2023-05-17T23:13:08;11.00;99.90
15916;DHT22;8057;47.830;-3.870;2023-05-17T23:17:17;11.00;99.90
15916;DHT22;8057;47.830;-3.870;2023-05-17T23:21:26;11.00;99.90
15916;DHT22;8057;47.830;-3.870;2023-05-17T23:25:39;11.00;99.90
15916;DHT22;8057;47.830;-3.870;2023-05-17T23:29:50;11.00;99.90
15916;DHT22;8057;47.830;-3.870;2023-05-17T23:34:01;11.00;99.90
15916;DHT22;8057;47.830;-3.870;2023-05-17T23:38:10;11.00;99.90
15916;DHT22;8057;47.830;-3.870;2023-05-17T23:42:20;11.00;99.90
15916;DHT22;8057;47.830;-3.870;2023-05-17T23:46:30;11.00;99.90
15916;DHT22;8057;47.830;-3.870;2023-05-17T23:50:41;11.10;99.90
15916;DHT22;8057;47.830;-3.870;2023-05-17T23:54:50;11.10;99.90
15916;DHT22;8057;47.830;-3.870;2023-05-17T23:59:04;11.10;99.90
